sensor_id;sensor_type;location;lat;lon;timestamp;P1;durP1;ratioP1;P2;durP2;ratioP2
54815;SDS011;40715;55.752;37.884;2022-10-20T00:01:58;0.00;;;0.00;;
54815;SDS011;40715;55.752;37.884;2022-10-20T00:04:24;0.00;;;0.00;;
54815;SDS011;40715;55.752;37.884;2022-10-20T00:06:51;0.00;;;0.00;;
54815;SDS011;40715;55.752;37.884;2022-10-20T00:09:18;0.00;;;0.00;;
54815;SDS011;40715;55.752;37.884;2022-10-20T00:11:45;0.00;;;0.00;;
54815;SDS011;40715;55.752;37.884;2022-10-20T00:14:12;0.00;;;0.00;;
54815;SDS011;40715;55.752;37.884;2022-10-20T00:16:39;0.00;;;0.00;;
54815;SDS011;40715;55.752;37.884;2022-10-20T00:19:06;0.00;;;0.00;;
54815;SDS011;40715;55.752;37.884;2022-10-20T00:21:33;0.00;;;0.00;;
54815;SDS011;40715;55.752;37.884;2022-10-20T00:24:00;0.00;;;0.00;;
54815;SDS011;40715;55.752;37.884;2022-10-20T00:26:28;0.00;;;0.00;;
54815;SDS011;40715;55.752;37.884;2022-10-20T00:28:56;0.00;;;0.00;;
54815;SDS011;40715;55.752;37.884;2022-10-20T00:31:24;0.00;;;0.00;;
54815;SDS011;40715;55.752;37.884;2022-10-20T00:33:52;0.00;;;0.00;;
54815;SDS011;40715;55.752;37.884;2022-10-20T00:36:20;0.00;;;0.00;;
54815;SDS011;40715;55.752;37.884;2022-10-20T00:38:48;0.00;;;0.00;;
54815;SDS011;40715;55.752;37.884;2022-10-20T00:41:17;0.00;;;0.00;;
54815;SDS011;40715;55.752;37.884;2022-10-20T00:46:37;0.00;;;0.00;;
54815;SDS011;40715;55.752;37.884;2022-10-20T00:49:22;0.00;;;0.00;;
54815;SDS011;40715;55.752;37.884;2022-10-20T00:51:51;0.00;;;0.00;;
54815;SDS011;40715;55.752;37.884;2022-10-20T00:54:21;0.00;;;0.00;;
54815;SDS011;40715;55.752;37.884;2022-10-20T00:56:51;0.00;;;0.00;;
54815;SDS011;40715;55.752;37.884;2022-10-20T00:59:22;0.00;;;0.00;;
54815;SDS011;40715;55.752;37.884;2022-10-20T01:01:55;0.00;;;0.00;;
54815;SDS011;40715;55.752;37.884;2022-10-20T01:04:25;0.00;;;0.00;;
54815;SDS011;40715;55.752;37.884;2022-10-20T01:06:55;0.00;;;0.00;;
54815;SDS011;40715;55.752;37.884;2022-10-20T01:09:22;0.00;;;0.00;;
54815;SDS011;40715;55.752;37.884;2022-10-20T01:14:40;0.00;;;0.00;;
54815;SDS011;40715;55.752;37.884;2022-10-20T01:25:53;0.00;;;0.00;;
54815;SDS011;40715;55.752;37.884;2022-10-20T01:28:41;0.00;;;0.00;;
54815;SDS011;40715;55.752;37.884;2022-10-20T01:31:18;0.00;;;0.00;;
54815;SDS011;40715;55.752;37.884;2022-10-20T01:34:10;0.00;;;0.00;;
54815;SDS011;40715;55.752;37.884;2022-10-20T01:36:48;0.00;;;0.00;;
54815;SDS011;40715;55.752;37.884;2022-10-20T01:39:30;0.00;;;0.00;;
54815;SDS011;40715;55.752;37.884;2022-10-20T01:42:08;0.00;;;0.00;;
54815;SDS011;40715;55.752;37.884;2022-10-20T01:44:40;0.00;;;0.00;;
54815;SDS011;40715;55.752;37.884;2022-10-20T01:47:08;0.00;;;0.00;;
54815;SDS011;40715;55.752;37.884;2022-10-20T01:49:37;0.00;;;0.00;;
54815;SDS011;40715;55.752;37.884;2022-10-20T01:52:11;0.00;;;0.00;;
54815;SDS011;40715;55.752;37.884;2022-10-20T01:54:39;0.00;;;0.00;;
54815;SDS011;40715;55.752;37.884;2022-10-20T02:02:32;0.00;;;0.00;;
54815;SDS011;40715;55.752;37.884;2022-10-20T02:08:33;0.00;;;0.00;;
54815;SDS011;40715;55.752;37.884;2022-10-20T02:11:21;0.00;;;0.00;;
54815;SDS011;40715;55.752;37.884;2022-10-20T02:13:51;0.00;;;0.00;;
54815;SDS011;40715;55.752;37.884;2022-10-20T02:16:24;0.00;;;0.00;;
54815;SDS011;40715;55.752;37.884;2022-10-20T02:18:55;0.00;;;0.00;;
54815;SDS011;40715;55.752;37.884;2022-10-20T02:21:29;0.00;;;0.00;;
54815;SDS011;40715;55.752;37.884;2022-10-20T02:23:57;0.00;;;0.00;;
54815;SDS011;40715;55.752;37.884;2022-10-20T02:26:29;0.00;;;0.00;;
54815;SDS011;40715;55.752;37.884;2022-10-20T02:28:59;0.00;;;0.00;;
54815;SDS011;40715;55.752;37.884;2022-10-20T02:31:30;0.00;;;0.00;;
54815;SDS011;40715;55.752;37.884;2022-10-20T02:33:57;0.00;;;0.00;;
54815;SDS011;40715;55.752;37.884;2022-10-20T02:36:26;0.00;;;0.00;;
54815;SDS011;40715;55.752;37.884;2022-10-20T02:38:54;0.00;;;0.00;;
54815;SDS011;40715;55.752;37.884;2022-10-20T02:41:21;0.00;;;0.00;;
54815;SDS011;40715;55.752;37.884;2022-10-20T02:43:48;0.00;;;0.00;;
54815;SDS011;40715;55.752;37.884;2022-10-20T02:46:15;0.00;;;0.00;;
54815;SDS011;40715;55.752;37.884;2022-10-20T02:48:42;0.05;;;0.00;;
54815;SDS011;40715;55.752;37.884;2022-10-20T02:51:09;0.00;;;0.00;;
54815;SDS011;40715;55.752;37.884;2022-10-20T02:53:37;0.00;;;0.00;;
54815;SDS011;40715;55.752;37.884;2022-10-20T02:56:04;0.00;;;0.00;;
54815;SDS011;40715;55.752;37.884;2022-10-20T02:58:31;0.00;;;0.00;;
54815;SDS011;40715;55.752;37.884;2022-10-20T03:00:57;0.00;;;0.00;;
54815;SDS011;40715;55.752;37.884;2022-10-20T03:03:24;0.00;;;0.00;;
54815;SDS011;40715;55.752;37.884;2022-10-20T03:05:51;0.00;;;0.00;;
54815;SDS011;40715;55.752;37.884;2022-10-20T03:08:18;0.00;;;0.00;;
54815;SDS011;40715;55.752;37.884;2022-10-20T03:10:47;0.00;;;0.00;;
54815;SDS011;40715;55.752;37.884;2022-10-20T03:13:14;0.00;;;0.00;;
54815;SDS011;40715;55.752;37.884;2022-10-20T03:15:41;0.00;;;0.00;;
54815;SDS011;40715;55.752;37.884;2022-10-20T03:18:08;0.00;;;0.00;;
54815;SDS011;40715;55.752;37.884;2022-10-20T03:20:34;0.00;;;0.00;;
54815;SDS011;40715;55.752;37.884;2022-10-20T03:23:02;0.00;;;0.00;;
54815;SDS011;40715;55.752;37.884;2022-10-20T03:25:29;0.00;;;0.00;;
54815;SDS011;40715;55.752;37.884;2022-10-20T03:27:58;0.00;;;0.00;;
54815;SDS011;40715;55.752;37.884;2022-10-20T03:30:25;0.00;;;0.00;;
54815;SDS011;40715;55.752;37.884;2022-10-20T03:32:52;0.00;;;0.00;;
54815;SDS011;40715;55.752;37.884;2022-10-20T03:35:19;0.00;;;0.00;;
54815;SDS011;40715;55.752;37.884;2022-10-20T03:37:46;0.00;;;0.00;;
54815;SDS011;40715;55.752;37.884;2022-10-20T03:40:13;0.00;;;0.00;;
54815;SDS011;40715;55.752;37.884;2022-10-20T03:42:40;0.00;;;0.00;;
54815;SDS011;40715;55.752;37.884;2022-10-20T03:45:07;0.00;;;0.00;;
54815;SDS011;40715;55.752;37.884;2022-10-20T03:47:35;0.00;;;0.00;;
54815;SDS011;40715;55.752;37.884;2022-10-20T03:50:02;0.00;;;0.00;;
54815;SDS011;40715;55.752;37.884;2022-10-20T03:52:31;0.00;;;0.00;;
54815;SDS011;40715;55.752;37.884;2022-10-20T03:54:58;0.10;;;0.00;;
54815;SDS011;40715;55.752;37.884;2022-10-20T03:57:24;0.00;;;0.00;;
54815;SDS011;40715;55.752;37.884;2022-10-20T03:59:52;0.00;;;0.00;;
54815;SDS011;40715;55.752;37.884;2022-10-20T04:02:25;0.00;;;0.00;;
54815;SDS011;40715;55.752;37.884;2022-10-20T04:04:55;0.00;;;0.00;;
54815;SDS011;40715;55.752;37.884;2022-10-20T04:07:22;0.00;;;0.00;;
54815;SDS011;40715;55.752;37.884;2022-10-20T04:09:49;0.00;;;0.00;;
54815;SDS011;40715;55.752;37.884;2022-10-20T04:12:16;0.00;;;0.00;;
54815;SDS011;40715;55.752;37.884;2022-10-20T04:14:43;0.00;;;0.00;;
54815;SDS011;40715;55.752;37.884;2022-10-20T04:17:10;0.00;;;0.00;;
54815;SDS011;40715;55.752;37.884;2022-10-20T04:19:37;0.00;;;0.00;;
54815;SDS011;40715;55.752;37.884;2022-10-20T04:22:03;0.00;;;0.00;;
54815;SDS011;40715;55.752;37.884;2022-10-20T04:24:30;0.00;;;0.00;;
54815;SDS011;40715;55.752;37.884;2022-10-20T04:26:58;0.00;;;0.00;;
54815;SDS011;40715;55.752;37.884;2022-10-20T04:29:25;0.00;;;0.00;;
54815;SDS011;40715;55.752;37.884;2022-10-20T04:31:52;0.00;;;0.00;;
54815;SDS011;40715;55.752;37.884;2022-10-20T04:34:19;0.00;;;0.00;;
54815;SDS011;40715;55.752;37.884;2022-10-20T04:36:46;0.00;;;0.00;;
54815;SDS011;40715;55.752;37.884;2022-10-20T04:39:13;0.00;;;0.00;;
54815;SDS011;40715;55.752;37.884;2022-10-20T04:41:39;0.00;;;0.00;;
54815;SDS011;40715;55.752;37.884;2022-10-20T04:44:07;0.00;;;0.00;;
54815;SDS011;40715;55.752;37.884;2022-10-20T04:46:34;0.00;;;0.00;;
54815;SDS011;40715;55.752;37.884;2022-10-20T04:49:01;0.00;;;0.00;;
54815;SDS011;40715;55.752;37.884;2022-10-20T04:51:28;0.00;;;0.00;;
54815;SDS011;40715;55.752;37.884;2022-10-20T04:53:55;0.00;;;0.00;;
54815;SDS011;40715;55.752;37.884;2022-10-20T04:56:21;0.00;;;0.00;;
54815;SDS011;40715;55.752;37.884;2022-10-20T04:58:52;0.00;;;0.00;;
54815;SDS011;40715;55.752;37.884;2022-10-20T05:01:22;0.00;;;0.00;;
54815;SDS011;40715;55.752;37.884;2022-10-20T05:03:51;0.00;;;0.00;;
54815;SDS011;40715;55.752;37.884;2022-10-20T05:08:47;0.00;;;0.00;;
54815;SDS011;40715;55.752;37.884;2022-10-20T05:11:17;0.00;;;0.00;;
54815;SDS011;40715;55.752;37.884;2022-10-20T05:13:46;0.00;;;0.00;;
54815;SDS011;40715;55.752;37.884;2022-10-20T05:16:13;0.00;;;0.00;;
54815;SDS011;40715;55.752;37.884;2022-10-20T05:18:43;0.00;;;0.00;;
54815;SDS011;40715;55.752;37.884;2022-10-20T05:21:11;0.00;;;0.00;;
54815;SDS011;40715;55.752;37.884;2022-10-20T05:23:43;0.00;;;0.00;;
54815;SDS011;40715;55.752;37.884;2022-10-20T05:26:13;0.00;;;0.00;;
54815;SDS011;40715;55.752;37.884;2022-10-20T05:28:43;0.00;;;0.00;;
54815;SDS011;40715;55.752;37.884;2022-10-20T05:31:15;0.00;;;0.00;;
54815;SDS011;40715;55.752;37.884;2022-10-20T05:33:46;0.00;;;0.00;;
54815;SDS011;40715;55.752;37.884;2022-10-20T05:36:19;0.00;;;0.00;;
54815;SDS011;40715;55.752;37.884;2022-10-20T05:38:49;0.00;;;0.00;;
54815;SDS011;40715;55.752;37.884;2022-10-20T05:41:23;0.00;;;0.00;;
54815;SDS011;40715;55.752;37.884;2022-10-20T05:43:53;0.00;;;0.00;;
54815;SDS011;40715;55.752;37.884;2022-10-20T05:46:26;0.00;;;0.00;;
54815;SDS011;40715;55.752;37.884;2022-10-20T05:48:55;0.00;;;0.00;;
54815;SDS011;40715;55.752;37.884;2022-10-20T05:51:24;0.00;;;0.00;;
54815;SDS011;40715;55.752;37.884;2022-10-20T05:53:53;0.00;;;0.00;;
54815;SDS011;40715;55.752;37.884;2022-10-20T05:56:21;0.00;;;0.00;;
54815;SDS011;40715;55.752;37.884;2022-10-20T05:58:49;0.00;;;0.00;;
54815;SDS011;40715;55.752;37.884;2022-10-20T06:01:18;0.00;;;0.00;;
54815;SDS011;40715;55.752;37.884;2022-10-20T06:03:59;0.00;;;0.00;;
54815;SDS011;40715;55.752;37.884;2022-10-20T06:06:27;0.00;;;0.00;;
54815;SDS011;40715;55.752;37.884;2022-10-20T06:08:56;0.00;;;0.00;;
54815;SDS011;40715;55.752;37.884;2022-10-20T06:11:25;0.00;;;0.00;;
54815;SDS011;40715;55.752;37.884;2022-10-20T06:13:52;0.00;;;0.00;;
54815;SDS011;40715;55.752;37.884;2022-10-20T06:16:22;0.00;;;0.00;;
54815;SDS011;40715;55.752;37.884;2022-10-20T06:18:50;0.00;;;0.00;;
54815;SDS011;40715;55.752;37.884;2022-10-20T06:21:19;0.00;;;0.00;;
54815;SDS011;40715;55.752;37.884;2022-10-20T06:23:50;0.00;;;0.00;;
54815;SDS011;40715;55.752;37.884;2022-10-20T06:26:18;0.00;;;0.00;;
54815;SDS011;40715;55.752;37.884;2022-10-20T06:28:47;0.00;;;0.00;;
54815;SDS011;40715;55.752;37.884;2022-10-20T06:31:29;0.00;;;0.00;;
54815;SDS011;40715;55.752;37.884;2022-10-20T06:33:57;0.10;;;0.00;;
54815;SDS011;40715;55.752;37.884;2022-10-20T06:36:25;0.00;;;0.00;;
54815;SDS011;40715;55.752;37.884;2022-10-20T06:38:57;0.00;;;0.00;;
54815;SDS011;40715;55.752;37.884;2022-10-20T06:41:25;0.00;;;0.00;;
54815;SDS011;40715;55.752;37.884;2022-10-20T06:43:54;0.00;;;0.00;;
54815;SDS011;40715;55.752;37.884;2022-10-20T06:46:26;0.00;;;0.00;;
54815;SDS011;40715;55.752;37.884;2022-10-20T06:48:59;0.00;;;0.00;;
54815;SDS011;40715;55.752;37.884;2022-10-20T06:51:26;0.00;;;0.00;;
54815;SDS011;40715;55.752;37.884;2022-10-20T06:53:53;0.00;;;0.00;;
54815;SDS011;40715;55.752;37.884;2022-10-20T06:56:24;0.00;;;0.00;;
54815;SDS011;40715;55.752;37.884;2022-10-20T06:58:54;0.00;;;0.00;;
54815;SDS011;40715;55.752;37.884;2022-10-20T07:01:37;0.00;;;0.00;;
54815;SDS011;40715;55.752;37.884;2022-10-20T07:04:06;0.00;;;0.00;;
54815;SDS011;40715;55.752;37.884;2022-10-20T07:06:37;0.00;;;0.00;;
54815;SDS011;40715;55.752;37.884;2022-10-20T07:09:05;0.00;;;0.00;;
54815;SDS011;40715;55.752;37.884;2022-10-20T07:11:34;0.00;;;0.00;;
54815;SDS011;40715;55.752;37.884;2022-10-20T07:14:02;0.00;;;0.00;;
54815;SDS011;40715;55.752;37.884;2022-10-20T07:16:30;0.00;;;0.00;;
54815;SDS011;40715;55.752;37.884;2022-10-20T07:19:00;0.00;;;0.00;;
54815;SDS011;40715;55.752;37.884;2022-10-20T07:21:28;0.10;;;0.10;;
54815;SDS011;40715;55.752;37.884;2022-10-20T07:24:00;0.17;;;0.17;;
54815;SDS011;40715;55.752;37.884;2022-10-20T07:26:28;0.20;;;0.20;;
54815;SDS011;40715;55.752;37.884;2022-10-20T07:28:57;0.30;;;0.30;;
54815;SDS011;40715;55.752;37.884;2022-10-20T07:31:26;0.40;;;0.40;;
54815;SDS011;40715;55.752;37.884;2022-10-20T07:33:57;0.50;;;0.50;;
54815;SDS011;40715;55.752;37.884;2022-10-20T07:36:32;0.60;;;0.60;;
54815;SDS011;40715;55.752;37.884;2022-10-20T07:39:02;0.60;;;0.60;;
54815;SDS011;40715;55.752;37.884;2022-10-20T07:41:30;0.30;;;0.30;;
54815;SDS011;40715;55.752;37.884;2022-10-20T07:43:58;0.55;;;0.55;;
54815;SDS011;40715;55.752;37.884;2022-10-20T07:46:25;0.30;;;0.30;;
54815;SDS011;40715;55.752;37.884;2022-10-20T07:48:52;0.20;;;0.20;;
54815;SDS011;40715;55.752;37.884;2022-10-20T07:54:05;0.10;;;0.10;;
54815;SDS011;40715;55.752;37.884;2022-10-20T07:56:35;0.00;;;0.00;;
54815;SDS011;40715;55.752;37.884;2022-10-20T07:59:04;0.00;;;0.00;;
54815;SDS011;40715;55.752;37.884;2022-10-20T08:01:32;0.00;;;0.00;;
54815;SDS011;40715;55.752;37.884;2022-10-20T08:04:00;0.10;;;0.10;;
54815;SDS011;40715;55.752;37.884;2022-10-20T08:06:27;0.00;;;0.00;;
54815;SDS011;40715;55.752;37.884;2022-10-20T08:08:54;0.00;;;0.00;;
54815;SDS011;40715;55.752;37.884;2022-10-20T08:11:21;0.00;;;0.00;;
54815;SDS011;40715;55.752;37.884;2022-10-20T08:13:48;0.00;;;0.00;;
54815;SDS011;40715;55.752;37.884;2022-10-20T08:16:15;0.00;;;0.00;;
54815;SDS011;40715;55.752;37.884;2022-10-20T08:18:57;0.00;;;0.00;;
54815;SDS011;40715;55.752;37.884;2022-10-20T08:21:24;0.00;;;0.00;;
54815;SDS011;40715;55.752;37.884;2022-10-20T08:23:51;0.00;;;0.00;;
54815;SDS011;40715;55.752;37.884;2022-10-20T08:26:19;0.00;;;0.00;;
54815;SDS011;40715;55.752;37.884;2022-10-20T08:28:49;0.00;;;0.00;;
54815;SDS011;40715;55.752;37.884;2022-10-20T08:31:17;0.00;;;0.00;;
54815;SDS011;40715;55.752;37.884;2022-10-20T08:33:45;0.00;;;0.00;;
54815;SDS011;40715;55.752;37.884;2022-10-20T08:36:17;0.00;;;0.00;;
54815;SDS011;40715;55.752;37.884;2022-10-20T08:38:44;0.00;;;0.00;;
54815;SDS011;40715;55.752;37.884;2022-10-20T08:41:18;0.00;;;0.00;;
54815;SDS011;40715;55.752;37.884;2022-10-20T08:43:47;0.00;;;0.00;;
54815;SDS011;40715;55.752;37.884;2022-10-20T08:46:18;0.00;;;0.00;;
54815;SDS011;40715;55.752;37.884;2022-10-20T08:48:48;0.00;;;0.00;;
54815;SDS011;40715;55.752;37.884;2022-10-20T08:51:19;0.00;;;0.00;;
54815;SDS011;40715;55.752;37.884;2022-10-20T08:53:49;0.00;;;0.00;;
54815;SDS011;40715;55.752;37.884;2022-10-20T08:56:19;0.00;;;0.00;;
54815;SDS011;40715;55.752;37.884;2022-10-20T08:58:50;0.00;;;0.00;;
54815;SDS011;40715;55.752;37.884;2022-10-20T09:01:25;0.00;;;0.00;;
54815;SDS011;40715;55.752;37.884;2022-10-20T09:04:03;0.00;;;0.00;;
54815;SDS011;40715;55.752;37.884;2022-10-20T09:06:40;0.00;;;0.00;;
54815;SDS011;40715;55.752;37.884;2022-10-20T09:09:13;0.00;;;0.00;;
54815;SDS011;40715;55.752;37.884;2022-10-20T09:11:43;0.00;;;0.00;;
54815;SDS011;40715;55.752;37.884;2022-10-20T09:14:11;0.00;;;0.00;;
54815;SDS011;40715;55.752;37.884;2022-10-20T09:16:39;0.00;;;0.00;;
54815;SDS011;40715;55.752;37.884;2022-10-20T09:19:24;0.00;;;0.00;;
54815;SDS011;40715;55.752;37.884;2022-10-20T09:21:53;0.00;;;0.00;;
54815;SDS011;40715;55.752;37.884;2022-10-20T09:24:24;0.00;;;0.00;;
54815;SDS011;40715;55.752;37.884;2022-10-20T09:26:55;0.00;;;0.00;;
54815;SDS011;40715;55.752;37.884;2022-10-20T09:29:35;0.00;;;0.00;;
54815;SDS011;40715;55.752;37.884;2022-10-20T09:32:15;0.00;;;0.00;;
54815;SDS011;40715;55.752;37.884;2022-10-20T09:35:17;0.00;;;0.00;;
54815;SDS011;40715;55.752;37.884;2022-10-20T09:40:41;0.00;;;0.00;;
54815;SDS011;40715;55.752;37.884;2022-10-20T09:43:15;0.00;;;0.00;;
54815;SDS011;40715;55.752;37.884;2022-10-20T09:46:27;0.00;;;0.00;;
54815;SDS011;40715;55.752;37.884;2022-10-20T09:48:39;0.00;;;0.00;;
54815;SDS011;40715;55.752;37.884;2022-10-20T09:51:14;0.00;;;0.00;;
54815;SDS011;40715;55.752;37.884;2022-10-20T09:53:54;0.00;;;0.00;;
54815;SDS011;40715;55.752;37.884;2022-10-20T09:56:32;0.00;;;0.00;;
54815;SDS011;40715;55.752;37.884;2022-10-20T09:59:17;0.00;;;0.00;;
54815;SDS011;40715;55.752;37.884;2022-10-20T10:01:52;0.00;;;0.00;;
54815;SDS011;40715;55.752;37.884;2022-10-20T10:06:59;0.00;;;0.00;;
54815;SDS011;40715;55.752;37.884;2022-10-20T10:09:30;0.00;;;0.00;;
54815;SDS011;40715;55.752;37.884;2022-10-20T10:12:03;0.00;;;0.00;;
54815;SDS011;40715;55.752;37.884;2022-10-20T10:14:50;0.00;;;0.00;;
54815;SDS011;40715;55.752;37.884;2022-10-20T10:17:31;0.00;;;0.00;;
54815;SDS011;40715;55.752;37.884;2022-10-20T10:20:00;0.00;;;0.00;;
54815;SDS011;40715;55.752;37.884;2022-10-20T10:22:30;0.00;;;0.00;;
54815;SDS011;40715;55.752;37.884;2022-10-20T10:24:58;0.00;;;0.00;;
54815;SDS011;40715;55.752;37.884;2022-10-20T10:27:29;0.00;;;0.00;;
54815;SDS011;40715;55.752;37.884;2022-10-20T10:32:52;0.00;;;0.00;;
54815;SDS011;40715;55.752;37.884;2022-10-20T10:38:02;0.00;;;0.00;;
54815;SDS011;40715;55.752;37.884;2022-10-20T10:40:44;0.00;;;0.00;;
54815;SDS011;40715;55.752;37.884;2022-10-20T10:46:18;0.00;;;0.00;;
54815;SDS011;40715;55.752;37.884;2022-10-20T10:48:53;0.00;;;0.00;;
54815;SDS011;40715;55.752;37.884;2022-10-20T10:55:08;0.00;;;0.00;;
54815;SDS011;40715;55.752;37.884;2022-10-20T11:06:35;0.00;;;0.00;;
54815;SDS011;40715;55.752;37.884;2022-10-20T11:12:20;0.00;;;0.00;;
54815;SDS011;40715;55.752;37.884;2022-10-20T11:15:00;0.00;;;0.00;;
54815;SDS011;40715;55.752;37.884;2022-10-20T11:20:35;0.00;;;0.00;;
54815;SDS011;40715;55.752;37.884;2022-10-20T11:28:40;0.00;;;0.00;;
54815;SDS011;40715;55.752;37.884;2022-10-20T11:31:21;0.00;;;0.00;;
54815;SDS011;40715;55.752;37.884;2022-10-20T11:36:46;0.00;;;0.00;;
54815;SDS011;40715;55.752;37.884;2022-10-20T11:40:02;0.00;;;0.00;;
54815;SDS011;40715;55.752;37.884;2022-10-20T11:42:23;0.00;;;0.00;;
54815;SDS011;40715;55.752;37.884;2022-10-20T11:44:51;0.00;;;0.00;;
54815;SDS011;40715;55.752;37.884;2022-10-20T11:47:25;0.00;;;0.00;;
54815;SDS011;40715;55.752;37.884;2022-10-20T11:49:59;0.00;;;0.00;;
54815;SDS011;40715;55.752;37.884;2022-10-20T11:55:14;0.00;;;0.00;;
54815;SDS011;40715;55.752;37.884;2022-10-20T12:00:30;0.00;;;0.00;;
54815;SDS011;40715;55.752;37.884;2022-10-20T12:03:13;0.00;;;0.00;;
54815;SDS011;40715;55.752;37.884;2022-10-20T12:19:48;0.00;;;0.00;;
54815;SDS011;40715;55.752;37.884;2022-10-20T12:27:21;0.00;;;0.00;;
54815;SDS011;40715;55.752;37.884;2022-10-20T12:29:53;0.00;;;0.00;;
54815;SDS011;40715;55.752;37.884;2022-10-20T12:37:37;0.00;;;0.00;;
54815;SDS011;40715;55.752;37.884;2022-10-20T12:42:44;0.00;;;0.00;;
54815;SDS011;40715;55.752;37.884;2022-10-20T12:47:55;0.00;;;0.00;;
54815;SDS011;40715;55.752;37.884;2022-10-20T12:50:32;0.00;;;0.00;;
54815;SDS011;40715;55.752;37.884;2022-10-20T12:55:58;0.00;;;0.00;;
54815;SDS011;40715;55.752;37.884;2022-10-20T12:58:31;0.00;;;0.00;;
54815;SDS011;40715;55.752;37.884;2022-10-20T13:01:07;0.00;;;0.00;;
54815;SDS011;40715;55.752;37.884;2022-10-20T13:14:06;0.00;;;0.00;;
54815;SDS011;40715;55.752;37.884;2022-10-20T13:19:35;0.00;;;0.00;;
54815;SDS011;40715;55.752;37.884;2022-10-20T13:25:01;0.00;;;0.00;;
54815;SDS011;40715;55.752;37.884;2022-10-20T13:27:31;0.00;;;0.00;;
54815;SDS011;40715;55.752;37.884;2022-10-20T13:29:58;0.00;;;0.00;;
54815;SDS011;40715;55.752;37.884;2022-10-20T13:32:44;0.17;;;0.00;;
54815;SDS011;40715;55.752;37.884;2022-10-20T13:35:39;0.00;;;0.00;;
54815;SDS011;40715;55.752;37.884;2022-10-20T13:38:19;0.00;;;0.00;;
54815;SDS011;40715;55.752;37.884;2022-10-20T13:43:32;0.00;;;0.00;;
54815;SDS011;40715;55.752;37.884;2022-10-20T13:51:43;0.00;;;0.00;;
54815;SDS011;40715;55.752;37.884;2022-10-20T13:54:17;0.10;;;0.00;;
54815;SDS011;40715;55.752;37.884;2022-10-20T13:56:50;0.00;;;0.00;;
54815;SDS011;40715;55.752;37.884;2022-10-20T13:59:22;0.00;;;0.00;;
54815;SDS011;40715;55.752;37.884;2022-10-20T14:02:37;0.00;;;0.00;;
54815;SDS011;40715;55.752;37.884;2022-10-20T14:05:07;0.00;;;0.00;;
54815;SDS011;40715;55.752;37.884;2022-10-20T14:07:39;0.00;;;0.00;;
54815;SDS011;40715;55.752;37.884;2022-10-20T14:10:24;0.00;;;0.00;;
54815;SDS011;40715;55.752;37.884;2022-10-20T14:13:29;0.00;;;0.00;;
54815;SDS011;40715;55.752;37.884;2022-10-20T14:16:00;0.00;;;0.00;;
54815;SDS011;40715;55.752;37.884;2022-10-20T14:18:30;0.00;;;0.00;;
54815;SDS011;40715;55.752;37.884;2022-10-20T14:21:05;0.00;;;0.00;;
54815;SDS011;40715;55.752;37.884;2022-10-20T14:23:43;0.00;;;0.00;;
54815;SDS011;40715;55.752;37.884;2022-10-20T14:26:16;0.00;;;0.00;;
54815;SDS011;40715;55.752;37.884;2022-10-20T14:28:47;0.00;;;0.00;;
54815;SDS011;40715;55.752;37.884;2022-10-20T14:34:22;0.00;;;0.00;;
54815;SDS011;40715;55.752;37.884;2022-10-20T14:36:50;0.00;;;0.00;;
54815;SDS011;40715;55.752;37.884;2022-10-20T14:42:17;0.00;;;0.00;;
54815;SDS011;40715;55.752;37.884;2022-10-20T14:47:42;0.00;;;0.00;;
54815;SDS011;40715;55.752;37.884;2022-10-20T14:50:20;0.00;;;0.00;;
54815;SDS011;40715;55.752;37.884;2022-10-20T14:52:50;0.00;;;0.00;;
54815;SDS011;40715;55.752;37.884;2022-10-20T14:55:26;0.00;;;0.00;;
54815;SDS011;40715;55.752;37.884;2022-10-20T14:59:13;0.00;;;0.00;;
54815;SDS011;40715;55.752;37.884;2022-10-20T15:01:55;0.00;;;0.00;;
54815;SDS011;40715;55.752;37.884;2022-10-20T15:04:26;0.00;;;0.00;;
54815;SDS011;40715;55.752;37.884;2022-10-20T15:07:03;0.00;;;0.00;;
54815;SDS011;40715;55.752;37.884;2022-10-20T15:10:06;0.00;;;0.00;;
54815;SDS011;40715;55.752;37.884;2022-10-20T15:12:53;0.00;;;0.00;;
54815;SDS011;40715;55.752;37.884;2022-10-20T15:15:22;0.00;;;0.00;;
54815;SDS011;40715;55.752;37.884;2022-10-20T15:17:52;0.00;;;0.00;;
54815;SDS011;40715;55.752;37.884;2022-10-20T15:20:35;0.00;;;0.00;;
54815;SDS011;40715;55.752;37.884;2022-10-20T15:23:09;0.00;;;0.00;;
54815;SDS011;40715;55.752;37.884;2022-10-20T15:25:44;0.00;;;0.00;;
54815;SDS011;40715;55.752;37.884;2022-10-20T15:28:49;0.00;;;0.00;;
54815;SDS011;40715;55.752;37.884;2022-10-20T15:40:16;0.00;;;0.00;;
54815;SDS011;40715;55.752;37.884;2022-10-20T15:42:43;0.00;;;0.00;;
54815;SDS011;40715;55.752;37.884;2022-10-20T15:45:14;0.00;;;0.00;;
54815;SDS011;40715;55.752;37.884;2022-10-20T15:47:41;0.00;;;0.00;;
54815;SDS011;40715;55.752;37.884;2022-10-20T15:50:09;0.00;;;0.00;;
54815;SDS011;40715;55.752;37.884;2022-10-20T15:55:26;0.05;;;0.00;;
54815;SDS011;40715;55.752;37.884;2022-10-20T15:58:13;0.00;;;0.00;;
54815;SDS011;40715;55.752;37.884;2022-10-20T16:00:40;0.00;;;0.00;;
54815;SDS011;40715;55.752;37.884;2022-10-20T16:03:08;0.00;;;0.00;;
54815;SDS011;40715;55.752;37.884;2022-10-20T16:05:40;0.00;;;0.00;;
54815;SDS011;40715;55.752;37.884;2022-10-20T16:08:26;0.00;;;0.00;;
54815;SDS011;40715;55.752;37.884;2022-10-20T16:10:54;0.00;;;0.00;;
54815;SDS011;40715;55.752;37.884;2022-10-20T16:13:39;0.00;;;0.00;;
54815;SDS011;40715;55.752;37.884;2022-10-20T16:16:07;0.00;;;0.00;;
54815;SDS011;40715;55.752;37.884;2022-10-20T16:18:37;0.00;;;0.00;;
54815;SDS011;40715;55.752;37.884;2022-10-20T16:21:22;0.00;;;0.00;;
54815;SDS011;40715;55.752;37.884;2022-10-20T16:23:50;0.00;;;0.00;;
54815;SDS011;40715;55.752;37.884;2022-10-20T16:26:17;0.00;;;0.00;;
54815;SDS011;40715;55.752;37.884;2022-10-20T16:28:44;0.00;;;0.00;;
54815;SDS011;40715;55.752;37.884;2022-10-20T16:31:11;0.00;;;0.00;;
54815;SDS011;40715;55.752;37.884;2022-10-20T16:33:39;0.00;;;0.00;;
54815;SDS011;40715;55.752;37.884;2022-10-20T16:38:53;0.00;;;0.00;;
54815;SDS011;40715;55.752;37.884;2022-10-20T16:41:22;0.00;;;0.00;;
54815;SDS011;40715;55.752;37.884;2022-10-20T16:43:49;0.00;;;0.00;;
54815;SDS011;40715;55.752;37.884;2022-10-20T16:46:16;0.00;;;0.00;;
54815;SDS011;40715;55.752;37.884;2022-10-20T16:48:43;0.00;;;0.00;;
54815;SDS011;40715;55.752;37.884;2022-10-20T16:51:13;0.00;;;0.00;;
54815;SDS011;40715;55.752;37.884;2022-10-20T16:53:59;0.00;;;0.00;;
54815;SDS011;40715;55.752;37.884;2022-10-20T16:56:44;0.00;;;0.00;;
54815;SDS011;40715;55.752;37.884;2022-10-20T16:59:30;0.00;;;0.00;;
54815;SDS011;40715;55.752;37.884;2022-10-20T17:01:57;0.00;;;0.00;;
54815;SDS011;40715;55.752;37.884;2022-10-20T17:04:24;0.00;;;0.00;;
54815;SDS011;40715;55.752;37.884;2022-10-20T17:06:52;0.00;;;0.00;;
54815;SDS011;40715;55.752;37.884;2022-10-20T17:09:19;0.00;;;0.00;;
54815;SDS011;40715;55.752;37.884;2022-10-20T17:11:46;0.00;;;0.00;;
54815;SDS011;40715;55.752;37.884;2022-10-20T17:14:13;0.05;;;0.00;;
54815;SDS011;40715;55.752;37.884;2022-10-20T17:16:40;0.00;;;0.00;;
54815;SDS011;40715;55.752;37.884;2022-10-20T17:19:07;0.00;;;0.00;;
54815;SDS011;40715;55.752;37.884;2022-10-20T17:21:35;0.00;;;0.00;;
54815;SDS011;40715;55.752;37.884;2022-10-20T17:24:02;0.00;;;0.00;;
54815;SDS011;40715;55.752;37.884;2022-10-20T17:26:29;0.00;;;0.00;;
54815;SDS011;40715;55.752;37.884;2022-10-20T17:28:57;0.00;;;0.00;;
54815;SDS011;40715;55.752;37.884;2022-10-20T17:31:26;0.00;;;0.00;;
54815;SDS011;40715;55.752;37.884;2022-10-20T17:33:58;0.00;;;0.00;;
54815;SDS011;40715;55.752;37.884;2022-10-20T17:36:26;0.00;;;0.00;;